createdAt,value
2022-09-28T00:00:33.031Z,98593.72
2022-09-28T00:03:05.882Z,98589.63
2022-09-28T00:05:35.411Z,98585.47
2022-09-28T00:08:04.821Z,98580.50
2022-09-28T00:10:34.259Z,98579.78
2022-09-28T00:13:04.201Z,98576.44
2022-09-28T00:15:33.657Z,98574.88
2022-09-28T00:18:05.918Z,98570.09
2022-09-28T00:20:35.410Z,98554.00
2022-09-28T00:23:04.857Z,98553.13
2022-09-28T00:25:34.401Z,98542.66
2022-09-28T00:28:05.237Z,98543.81
2022-09-28T00:30:34.737Z,98542.53
2022-09-28T00:33:06.909Z,98534.88
2022-09-28T00:35:36.474Z,98540.25
2022-09-28T00:38:05.953Z,98535.59
2022-09-28T00:40:35.479Z,98530.88
2022-09-28T00:43:20.294Z,98529.25
2022-09-28T00:45:50.299Z,98523.09
2022-09-28T00:48:22.432Z,98517.94
2022-09-28T00:50:51.859Z,98511.38
2022-09-28T00:53:21.899Z,98502.81
2022-09-28T00:55:52.409Z,98505.25
2022-09-28T00:58:24.115Z,98496.09
2022-09-28T01:00:53.566Z,98500.41
2022-09-28T01:03:25.691Z,98499.22
2022-09-28T01:05:55.397Z,98500.41
2022-09-28T01:08:24.870Z,98491.72
2022-09-28T01:10:54.299Z,98491.50
2022-09-28T01:13:23.778Z,98485.16
2022-09-28T01:16:03.791Z,98478.09
2022-09-28T01:18:37.451Z,98479.22
2022-09-28T01:21:07.249Z,98479.47
2022-09-28T01:24:13.723Z,98479.47
2022-09-28T01:27:01.989Z,98466.06
2022-09-28T01:29:41.836Z,98474.78
2022-09-28T01:32:17.803Z,98484.81
2022-09-28T01:34:50.036Z,98469.50
2022-09-28T01:37:19.633Z,98468.94
2022-09-28T01:39:49.906Z,98462.84
2022-09-28T01:42:24.595Z,98459.28
2022-09-28T01:44:55.041Z,98452.91
2022-09-28T01:47:25.856Z,98453.75
2022-09-28T01:49:57.390Z,98453.75
2022-09-28T01:52:28.147Z,98451.41
2022-09-28T01:54:59.383Z,98458.72
2022-09-28T01:57:33.201Z,98461.50
2022-09-28T02:00:06.181Z,98474.31
2022-09-28T02:02:36.890Z,98466.59
2022-09-28T02:05:08.514Z,98465.00
2022-09-28T02:07:42.532Z,98465.66
2022-09-28T02:10:13.871Z,98455.22
2022-09-28T02:12:47.270Z,98456.28
2022-09-28T02:15:19.988Z,98453.63
2022-09-28T02:17:49.554Z,98446.50
2022-09-28T02:20:19.151Z,98440.97
2022-09-28T02:22:50.415Z,98440.97
2022-09-28T02:25:24.011Z,98448.09
2022-09-28T02:27:58.125Z,98446.41
2022-09-28T02:30:27.597Z,98443.94
2022-09-28T02:32:58.433Z,98437.31
2022-09-28T02:35:27.872Z,98439.34
2022-09-28T02:37:57.578Z,98432.94
2022-09-28T02:40:28.209Z,98432.16
2022-09-28T02:43:04.963Z,98441.91
2022-09-28T02:45:40.955Z,98442.16
2022-09-28T02:48:35.894Z,98441.47
2022-09-28T02:51:11.993Z,98438.81
2022-09-28T02:53:58.577Z,98428.97
2022-09-28T02:56:39.855Z,98432.97
2022-09-28T02:59:12.982Z,98429.47
2022-09-28T03:01:44.957Z,98427.38
2022-09-28T03:04:16.094Z,98432.75
2022-09-28T03:06:47.688Z,98433.94
2022-09-28T03:09:20.420Z,98436.50
2022-09-28T03:11:50.692Z,98431.31
2022-09-28T03:14:22.925Z,98441.25
2022-09-28T03:16:52.371Z,98446.81
2022-09-28T03:19:22.709Z,98443.94
2022-09-28T03:21:52.152Z,98440.81
2022-09-28T03:24:21.562Z,98437.94
2022-09-28T03:26:50.999Z,98440.50
2022-09-28T03:29:23.111Z,98430.69
2022-09-28T03:31:52.650Z,98431.06
2022-09-28T03:34:22.124Z,98433.31
2022-09-28T03:36:51.572Z,98435.63
2022-09-28T03:39:20.989Z,98440.09
2022-09-28T03:41:50.410Z,98439.88
2022-09-28T03:44:19.915Z,98433.78
2022-09-28T03:46:51.920Z,98435.63
2022-09-28T03:49:21.321Z,98437.47
2022-09-28T03:51:50.758Z,98431.94
2022-09-28T03:54:20.193Z,98431.56
2022-09-28T03:56:50.244Z,98432.88
2022-09-28T03:59:19.867Z,98433.03
2022-09-28T04:01:54.090Z,98428.78
2022-09-28T04:04:23.579Z,98434.31
2022-09-28T04:06:53.475Z,98441.81
2022-09-28T04:09:23.165Z,98446.03
2022-09-28T04:12:03.425Z,98446.13
2022-09-28T04:14:33.679Z,98437.03
2022-09-28T04:17:07.263Z,98440.81
2022-09-28T04:19:36.718Z,98437.44
2022-09-28T04:22:06.161Z,98446.03
2022-09-28T04:24:35.737Z,98452.16
2022-09-28T04:27:17.462Z,98445.59
2022-09-28T04:29:46.885Z,98447.88
2022-09-28T04:32:18.900Z,98455.88
2022-09-28T04:34:48.312Z,98454.81
2022-09-28T04:37:17.738Z,98459.94
2022-09-28T04:39:48.376Z,98461.16
2022-09-28T04:42:17.920Z,98457.94
2022-09-28T04:44:47.353Z,98463.47
2022-09-28T04:47:19.399Z,98466.34
2022-09-28T04:49:48.813Z,98465.72
2022-09-28T04:52:18.777Z,98477.53
2022-09-28T04:54:48.270Z,98470.91
2022-09-28T04:57:17.687Z,98476.41
2022-09-28T04:59:47.119Z,98477.69
2022-09-28T05:02:19.186Z,98474.88
2022-09-28T05:04:48.633Z,98472.38
2022-09-28T05:07:18.069Z,98476.50
2022-09-28T05:09:47.487Z,98473.69
2022-09-28T05:12:16.909Z,98490.31
2022-09-28T05:14:46.314Z,98483.78
2022-09-28T05:17:15.717Z,98488.50
2022-09-28T05:19:47.832Z,98491.38
2022-09-28T05:22:17.278Z,98480.94
2022-09-28T05:24:47.242Z,98484.41
2022-09-28T05:27:16.683Z,98481.66
2022-09-28T05:29:46.080Z,98484.53
2022-09-28T05:32:16.854Z,98493.72
2022-09-28T05:34:48.862Z,98490.84
2022-09-28T05:37:18.291Z,98494.84
2022-09-28T05:39:47.682Z,98489.34
2022-09-28T05:42:17.098Z,98491.72
2022-09-28T05:44:46.550Z,98497.59
2022-09-28T05:47:16.044Z,98498.13
2022-09-28T05:49:48.008Z,98491.47
2022-09-28T05:52:17.430Z,98486.38
2022-09-28T05:54:46.878Z,98488.53
2022-09-28T05:57:16.405Z,98496.94
2022-09-28T05:59:45.965Z,98498.63
2022-09-28T06:02:15.385Z,98500.22
2022-09-28T06:04:45.117Z,98501.91
2022-09-28T06:07:17.130Z,98502.78
2022-09-28T06:09:46.618Z,98497.03
2022-09-28T06:12:16.038Z,98501.03
2022-09-28T06:14:45.465Z,98496.66
2022-09-28T06:17:14.867Z,98504.16
2022-09-28T06:19:44.278Z,98506.97
2022-09-28T06:22:13.753Z,98509.97
2022-09-28T06:24:45.751Z,98505.78
2022-09-28T06:27:15.163Z,98517.56
2022-09-28T06:29:44.697Z,98520.94
2022-09-28T06:32:14.245Z,98514.06
2022-09-28T06:34:43.667Z,98513.53
2022-09-28T06:37:13.108Z,98521.16
2022-09-28T06:39:45.091Z,98523.91
2022-09-28T06:42:16.113Z,98531.91
2022-09-28T06:44:47.103Z,98524.97
2022-09-28T06:47:17.682Z,98527.31
2022-09-28T06:49:47.799Z,98528.97
2022-09-28T06:52:17.206Z,98535.22
2022-09-28T06:54:49.205Z,98537.75
2022-09-28T06:57:18.635Z,98545.38
2022-09-28T06:59:48.873Z,98534.34
2022-09-28T07:02:18.364Z,98552.47
2022-09-28T07:04:47.825Z,98547.56
2022-09-28T07:07:17.287Z,98547.66
2022-09-28T07:09:52.356Z,98555.25
2022-09-28T07:12:24.599Z,98557.44
2022-09-28T07:14:56.354Z,98553.31
2022-09-28T07:17:25.848Z,98557.44
2022-09-28T07:20:00.043Z,98565.25
2022-09-28T07:22:43.127Z,98566.97
2022-09-28T07:25:15.770Z,98563.91
2022-09-28T07:27:45.163Z,98572.03
2022-09-28T07:30:15.666Z,98575.25
2022-09-28T07:32:45.086Z,98581.38
2022-09-28T07:35:14.491Z,98581.97
2022-09-28T07:37:43.903Z,98592.75
2022-09-28T07:40:28.534Z,98596.22
2022-09-28T07:42:57.976Z,98601.00
2022-09-28T07:45:28.759Z,98608.19
2022-09-28T07:47:58.537Z,98609.88
2022-09-28T07:50:28.000Z,98609.50
2022-09-28T07:52:58.606Z,98612.06
2022-09-28T07:55:30.670Z,98623.91
2022-09-28T07:58:01.711Z,98624.81
2022-09-28T08:00:34.262Z,98637.75
2022-09-28T08:03:04.000Z,98633.41
2022-09-28T08:05:35.914Z,98640.69
2022-09-28T08:08:05.432Z,98642.13
2022-09-28T08:10:37.594Z,98644.03
2022-09-28T08:13:08.696Z,98641.69
2022-09-28T08:15:38.745Z,98640.13
2022-09-28T08:18:08.223Z,98648.34
2022-09-28T08:20:51.601Z,98652.81
2022-09-28T08:23:21.842Z,98655.97
2022-09-28T08:25:54.700Z,98649.78
2022-09-28T08:28:24.607Z,98654.81
2022-09-28T08:30:54.452Z,98654.75
2022-09-28T08:33:24.175Z,98648.88
2022-09-28T08:35:58.498Z,98646.69
2022-09-28T08:38:27.977Z,98648.09
2022-09-28T08:41:06.608Z,98653.44
2022-09-28T08:43:48.731Z,98653.19
2022-09-28T08:46:20.789Z,98651.31
2022-09-28T08:49:13.394Z,98659.81
2022-09-28T08:51:46.799Z,98657.13
2022-09-28T08:54:24.567Z,98662.50
2022-09-28T08:56:58.062Z,98665.41
2022-09-28T08:59:28.341Z,98657.72
2022-09-28T09:01:58.812Z,98656.47
2022-09-28T09:04:28.302Z,98660.38
2022-09-28T09:07:14.890Z,98669.56
2022-09-28T09:09:50.899Z,98669.97
2022-09-28T09:12:27.011Z,98687.47
2022-09-28T09:15:18.449Z,98680.00
2022-09-28T09:17:52.827Z,98690.53
2022-09-28T09:20:26.924Z,98684.88
2022-09-28T09:23:01.485Z,98694.84
2022-09-28T09:25:35.379Z,98691.41
2022-09-28T09:28:40.280Z,98697.28
2022-09-28T09:31:11.515Z,98698.00
2022-09-28T09:33:58.296Z,98700.22
2022-09-28T09:36:37.582Z,98692.47
2022-09-28T09:39:15.234Z,98692.56
2022-09-28T09:41:52.366Z,98687.25
2022-09-28T09:44:44.035Z,98697.66
2022-09-28T09:47:15.059Z,98687.22
2022-09-28T09:49:46.473Z,98695.22
2022-09-28T09:52:17.576Z,98695.22
2022-09-28T09:54:47.287Z,98692.28
2022-09-28T09:57:18.232Z,98695.50
2022-09-28T09:59:50.209Z,98691.47
2022-09-28T10:02:25.289Z,98692.28
2022-09-28T10:04:57.121Z,98703.19
2022-09-28T10:07:27.759Z,98700.78
2022-09-28T10:09:58.930Z,98704.44
2022-09-28T10:12:28.173Z,98696.97
2022-09-28T10:15:00.143Z,98699.59
2022-09-28T10:17:29.571Z,98704.41
2022-09-28T10:19:59.462Z,98703.09
2022-09-28T10:22:29.741Z,98700.41
2022-09-28T10:25:00.061Z,98697.44
2022-09-28T10:27:31.411Z,98710.38
2022-09-28T10:30:04.842Z,98710.97
2022-09-28T10:32:40.162Z,98718.44
2022-09-28T10:35:27.082Z,98719.56
2022-09-28T10:37:59.360Z,98721.19
2022-09-28T10:40:32.024Z,98724.41
2022-09-28T10:43:05.539Z,98723.09
2022-09-28T10:45:38.662Z,98732.69
2022-09-28T10:48:09.087Z,98723.41
2022-09-28T10:50:39.396Z,98722.88
2022-09-28T10:53:19.496Z,98723.94
2022-09-28T10:55:59.582Z,98722.88
2022-09-28T10:58:31.558Z,98726.63
2022-09-28T11:01:06.263Z,98728.53
2022-09-28T11:03:35.779Z,98723.19
2022-09-28T11:06:06.925Z,98724.19
2022-09-28T11:08:37.029Z,98720.75
2022-09-28T11:11:10.163Z,98713.59
2022-09-28T11:13:44.719Z,98706.56
2022-09-28T11:16:26.547Z,98704.13
2022-09-28T11:18:56.006Z,98702.69
2022-09-28T11:21:27.319Z,98714.31
2022-09-28T11:24:06.004Z,98713.03
2022-09-28T11:26:43.511Z,98710.88
2022-09-28T11:29:27.489Z,98710.84
2022-09-28T11:32:03.255Z,98705.47
2022-09-28T11:34:57.449Z,98704.59
2022-09-28T11:37:52.689Z,98707.75
2022-09-28T11:40:32.561Z,98716.78
2022-09-28T11:43:09.118Z,98706.13
2022-09-28T11:45:46.222Z,98718.75
2022-09-28T11:48:18.746Z,98724.97
2022-09-28T11:50:49.738Z,98719.13
2022-09-28T11:53:23.370Z,98717.28
2022-09-28T11:55:55.962Z,98714.13
2022-09-28T11:58:28.805Z,98716.22
2022-09-28T12:01:02.104Z,98715.13
2022-09-28T12:03:38.777Z,98719.34
2022-09-28T12:06:09.233Z,98714.00
2022-09-28T12:08:41.220Z,98710.84
2022-09-28T12:11:14.097Z,98709.25
2022-09-28T12:13:45.007Z,98718.03
2022-09-28T12:16:45.314Z,98714.00
2022-09-28T12:19:09.808Z,98712.16
2022-09-28T12:21:40.319Z,98712.16
2022-09-28T12:24:15.829Z,98713.19
2022-09-28T12:26:47.067Z,98718.47
2022-09-28T12:29:17.614Z,98718.72
2022-09-28T12:31:58.635Z,98715.69
2022-09-28T12:34:30.609Z,98715.44
2022-09-28T12:37:07.975Z,98718.19
2022-09-28T12:39:57.384Z,98711.31
2022-09-28T12:42:47.379Z,98719.34
2022-09-28T12:45:27.908Z,98702.81
2022-09-28T12:48:28.660Z,98711.38
2022-09-28T12:51:04.871Z,98709.75
2022-09-28T12:53:47.324Z,98707.84
2022-09-28T12:56:21.553Z,98710.75
2022-09-28T12:59:01.039Z,98714.66
2022-09-28T13:01:46.571Z,98712.50
2022-09-28T13:04:24.375Z,98707.91
2022-09-28T13:06:59.834Z,98703.63
2022-09-28T13:09:29.382Z,98702.22
2022-09-28T13:12:18.338Z,98708.28
2022-09-28T13:15:11.643Z,98706.66
2022-09-28T13:17:45.334Z,98706.44
2022-09-28T13:20:28.008Z,98715.09
2022-09-28T13:23:05.898Z,98709.78
2022-09-28T13:25:36.389Z,98712.16
2022-09-28T13:28:06.809Z,98712.16
2022-09-28T13:30:36.777Z,98711.19
2022-09-28T13:33:07.058Z,98713.44
2022-09-28T13:35:36.458Z,98704.13
2022-09-28T13:38:47.587Z,98707.53
2022-09-28T13:41:29.181Z,98709.34
2022-09-28T13:44:23.869Z,98706.94
2022-09-28T13:47:00.880Z,98707.44
2022-09-28T13:49:34.273Z,98706.97
2022-09-28T13:52:06.894Z,98706.44
2022-09-28T13:54:55.141Z,98711.72
2022-09-28T13:57:29.033Z,98712.03
2022-09-28T14:00:04.405Z,98714.16
2022-09-28T14:02:36.603Z,98709.91
2022-09-28T14:05:06.949Z,98717.66
2022-09-28T14:08:01.389Z,98709.91
2022-09-28T14:10:49.443Z,98712.06
2022-09-28T14:13:48.746Z,98709.69
2022-09-28T14:16:27.552Z,98715.00
2022-09-28T14:18:58.054Z,98717.94
2022-09-28T14:21:58.328Z,98712.06
2022-09-28T14:24:33.167Z,98714.22
2022-09-28T14:27:09.712Z,98723.84
2022-09-28T14:29:39.572Z,98717.16
2022-09-28T14:32:24.692Z,98720.63
2022-09-28T14:35:00.958Z,98723.28
2022-09-28T14:37:46.295Z,98721.16
2022-09-28T14:40:32.771Z,98718.75
2022-09-28T14:43:37.709Z,98723.00
2022-09-28T14:46:30.090Z,98716.59
2022-09-28T14:49:04.158Z,98722.75
2022-09-28T14:52:09.318Z,98725.94
2022-09-28T14:54:52.069Z,98726.13
2022-09-28T14:57:23.822Z,98725.66
2022-09-28T14:59:54.027Z,98732.06
2022-09-28T15:02:27.675Z,98728.06
2022-09-28T15:05:02.555Z,98728.06
2022-09-28T15:07:35.753Z,98733.69
2022-09-28T15:10:07.222Z,98736.59
2022-09-28T15:12:36.645Z,98737.94
2022-09-28T15:15:07.788Z,98733.41
2022-09-28T15:17:40.003Z,98736.34
2022-09-28T15:20:23.787Z,98734.75
2022-09-28T15:22:54.913Z,98735.84
2022-09-28T15:25:25.008Z,98735.56
2022-09-28T15:27:55.322Z,98736.63
2022-09-28T15:30:27.506Z,98729.69
2022-09-28T15:33:17.020Z,98736.38
2022-09-28T15:35:48.190Z,98734.00
2022-09-28T15:38:17.621Z,98731.63
2022-09-28T15:40:47.695Z,98732.97
2022-09-28T15:43:27.050Z,98731.63
2022-09-28T15:46:02.960Z,98736.97
2022-09-28T15:48:33.605Z,98739.63
2022-09-28T15:51:11.050Z,98730.84
2022-09-28T15:53:44.734Z,98737.50
2022-09-28T15:56:14.131Z,98738.03
2022-09-28T15:58:43.537Z,98735.66
2022-09-28T16:01:39.769Z,98741.25
2022-09-28T16:04:48.215Z,98743.09
2022-09-28T16:07:26.271Z,98744.72
2022-09-28T16:10:00.378Z,98744.44
2022-09-28T16:12:33.309Z,98741.25
2022-09-28T16:15:06.694Z,98746.31
2022-09-28T16:17:38.059Z,98747.66
2022-09-28T16:20:19.959Z,98744.75
2022-09-28T16:22:53.672Z,98745.78
2022-09-28T16:25:25.654Z,98747.41
2022-09-28T16:27:55.532Z,98746.59
2022-09-28T16:30:25.523Z,98754.31
2022-09-28T16:32:56.506Z,98742.34
2022-09-28T16:35:33.033Z,98746.09
2022-09-28T16:38:13.786Z,98748.75
2022-09-28T16:40:43.582Z,98753.28
2022-09-28T16:43:26.622Z,98753.81
2022-09-28T16:45:56.678Z,98751.16
2022-09-28T16:48:26.975Z,98754.09
2022-09-28T16:50:56.383Z,98754.34
2022-09-28T16:53:40.941Z,98755.94
2022-09-28T16:56:10.446Z,98753.53
2022-09-28T16:58:39.926Z,98764.47
2022-09-28T17:01:10.275Z,98768.47
2022-09-28T17:03:42.348Z,98763.41
2022-09-28T17:06:12.308Z,98772.72
2022-09-28T17:08:44.759Z,98776.97
2022-09-28T17:11:22.557Z,98762.88
2022-09-28T17:13:58.850Z,98782.84
2022-09-28T17:17:02.312Z,98784.66
2022-09-28T17:19:20.809Z,98783.63
2022-09-28T17:21:50.555Z,98790.00
2022-09-28T17:24:22.777Z,98780.66
2022-09-28T17:26:52.556Z,98799.03
2022-09-28T17:29:22.326Z,98793.69
2022-09-28T17:31:52.136Z,98797.16
2022-09-28T17:34:21.584Z,98796.88
2022-09-28T17:36:50.975Z,98797.94
2022-09-28T17:39:25.002Z,98806.47
2022-09-28T17:41:54.376Z,98811.78
2022-09-28T17:44:23.846Z,98801.41
2022-09-28T17:46:53.818Z,98802.97
2022-09-28T17:49:23.231Z,98810.44
2022-09-28T17:51:52.954Z,98814.41
2022-09-28T17:54:25.968Z,98800.56
2022-09-28T17:56:55.653Z,98813.84
2022-09-28T17:59:26.738Z,98812.78
2022-09-28T18:01:58.458Z,98816.75
2022-09-28T18:04:50.632Z,98815.66
2022-09-28T18:07:20.367Z,98814.06
2022-09-28T18:09:56.710Z,98810.31
2022-09-28T18:12:26.366Z,98814.28
2022-09-28T18:14:55.871Z,98822.00
2022-09-28T18:17:25.305Z,98823.56
2022-09-28T18:19:54.747Z,98820.66
2022-09-28T18:22:24.184Z,98816.41
2022-09-28T18:24:56.212Z,98819.06
2022-09-28T18:27:25.687Z,98818.50
2022-09-28T18:29:55.122Z,98812.41
2022-09-28T18:32:24.566Z,98831.78
2022-09-28T18:34:53.988Z,98824.88
2022-09-28T18:37:23.427Z,98832.34
2022-09-28T18:39:52.889Z,98831.53
2022-09-28T18:42:24.924Z,98833.88
2022-09-28T18:44:54.335Z,98840.53
2022-09-28T18:47:23.897Z,98838.09
2022-09-28T18:49:53.333Z,98840.25
2022-09-28T18:52:22.783Z,98852.19
2022-09-28T18:54:52.215Z,98848.44
2022-09-28T18:57:24.233Z,98853.19
2022-09-28T18:59:53.653Z,98856.56
2022-09-28T19:02:23.213Z,98859.16
2022-09-28T19:04:52.806Z,98861.53
2022-09-28T19:07:23.259Z,98859.34
2022-09-28T19:09:53.377Z,98864.09
2022-09-28T19:12:25.447Z,98864.06
2022-09-28T19:14:54.875Z,98870.38
2022-09-28T19:17:24.375Z,98866.63
2022-09-28T19:19:53.919Z,98876.75
2022-09-28T19:22:23.370Z,98869.03
2022-09-28T19:24:52.846Z,98872.75
2022-09-28T19:27:24.858Z,98863.97
2022-09-28T19:29:54.307Z,98872.72
2022-09-28T19:32:23.775Z,98863.41
2022-09-28T19:34:53.237Z,98872.13
2022-09-28T19:37:22.673Z,98874.22
2022-09-28T19:39:52.157Z,98877.41
2022-09-28T19:42:21.554Z,98864.63
2022-09-28T19:44:53.689Z,98874.69
2022-09-28T19:47:23.120Z,98877.31
2022-09-28T19:49:52.821Z,98890.53
2022-09-28T19:52:22.415Z,98886.53
2022-09-28T19:54:54.461Z,98895.25
2022-09-28T19:57:24.727Z,98890.63
2022-09-28T20:00:02.001Z,98894.03
2022-09-28T20:02:31.904Z,98889.19
2022-09-28T20:05:01.411Z,98893.16
2022-09-28T20:07:33.059Z,98893.47
2022-09-28T20:10:02.663Z,98900.34
2022-09-28T20:12:32.137Z,98901.63
2022-09-28T20:15:05.203Z,98905.28
2022-09-28T20:17:35.021Z,98907.13
2022-09-28T20:20:05.003Z,98904.63
2022-09-28T20:22:34.521Z,98902.72
2022-09-28T20:25:04.021Z,98909.25
2022-09-28T20:27:33.508Z,98913.13
2022-09-28T20:30:05.848Z,98920.47
2022-09-28T20:32:35.388Z,98916.41
2022-09-28T20:35:04.863Z,98911.03
2022-09-28T20:37:34.657Z,98923.16
2022-09-28T20:40:04.601Z,98914.34
2022-09-28T20:42:34.227Z,98909.78
2022-09-28T20:45:06.567Z,98909.16
2022-09-28T20:47:36.029Z,98912.19
2022-09-28T20:50:06.536Z,98918.00
2022-09-28T20:52:36.011Z,98912.94
2022-09-28T20:55:05.514Z,98916.63
2022-09-28T20:57:34.951Z,98919.53
2022-09-28T21:00:08.063Z,98920.56
2022-09-28T21:02:37.532Z,98917.84
2022-09-28T21:05:07.935Z,98918.31
2022-09-28T21:07:37.512Z,98915.91
2022-09-28T21:10:09.199Z,98913.44
2022-09-28T21:12:38.984Z,98921.41
2022-09-28T21:15:12.309Z,98913.44
2022-09-28T21:17:41.794Z,98917.38
2022-09-28T21:20:12.012Z,98914.66
2022-09-28T21:22:41.443Z,98915.13
2022-09-28T21:25:12.058Z,98908.22
2022-09-28T21:27:41.532Z,98904.75
2022-09-28T21:30:15.236Z,98909.03
2022-09-28T21:32:44.745Z,98910.63
2022-09-28T21:35:16.905Z,98911.59
2022-09-28T21:37:46.662Z,98906.78
2022-09-28T21:40:16.365Z,98908.06
2022-09-28T21:42:45.852Z,98911.03
2022-09-28T21:45:18.041Z,98902.53
2022-09-28T21:47:52.791Z,98902.53
2022-09-28T21:50:26.002Z,98903.25
2022-09-28T21:52:56.041Z,98911.91
2022-09-28T21:55:25.971Z,98917.00
2022-09-28T21:57:55.420Z,98910.25
2022-09-28T22:00:27.506Z,98918.59
2022-09-28T22:02:57.178Z,98921.69
2022-09-28T22:05:28.172Z,98919.06
2022-09-28T22:07:57.608Z,98922.59
2022-09-28T22:10:27.070Z,98918.00
2022-09-28T22:12:56.798Z,98918.81
2022-09-28T22:15:28.881Z,98927.31
2022-09-28T22:17:58.307Z,98931.00
2022-09-28T22:20:27.963Z,98931.50
2022-09-28T22:22:57.435Z,98920.56
2022-09-28T22:25:26.941Z,98924.03
2022-09-28T22:27:56.408Z,98919.78
2022-09-28T22:30:28.541Z,98926.47
2022-09-28T22:32:57.961Z,98923.03
2022-09-28T22:35:27.548Z,98918.88
2022-09-28T22:37:57.034Z,98920.81
2022-09-28T22:40:26.560Z,98926.81
2022-09-28T22:42:56.062Z,98922.78
2022-09-28T22:45:28.134Z,98922.03
2022-09-28T22:47:57.666Z,98919.16
2022-09-28T22:50:27.117Z,98928.38
2022-09-28T22:52:56.591Z,98932.84
2022-09-28T22:55:26.179Z,98933.78
2022-09-28T22:57:55.630Z,98938.25
2022-09-28T23:00:27.674Z,98939.94
2022-09-28T23:02:57.223Z,98939.41
2022-09-28T23:05:26.734Z,98938.69
2022-09-28T23:07:56.201Z,98941.56
2022-09-28T23:10:25.716Z,98943.75
2022-09-28T23:12:56.098Z,98945.81
2022-09-28T23:15:28.997Z,98946.06
2022-09-28T23:17:58.433Z,98949.63
2022-09-28T23:20:27.929Z,98949.88
2022-09-28T23:22:57.388Z,98951.69
2022-09-28T23:25:26.975Z,98945.84
2022-09-28T23:27:56.405Z,98944.03
2022-09-28T23:30:28.832Z,98947.00
2022-09-28T23:32:58.296Z,98953.94
2022-09-28T23:35:27.851Z,98950.13
2022-09-28T23:37:57.340Z,98943.25
2022-09-28T23:40:26.837Z,98945.63
2022-09-28T23:42:56.398Z,98940.81
2022-09-28T23:45:28.452Z,98950.34
2022-09-28T23:47:57.939Z,98946.56
2022-09-28T23:50:27.500Z,98949.69
2022-09-28T23:52:57.109Z,98944.84
2022-09-28T23:55:26.699Z,98948.97
2022-09-28T23:57:56.746Z,98944.19
